createdAt,value
2019-06-01T00:00:10.318Z,10.40
2019-06-01T00:00:32.619Z,12.82
2019-06-01T00:01:07.810Z,13.43
2019-06-01T00:01:42.520Z,15.60
2019-06-01T00:02:17.670Z,13.83
2019-06-01T00:02:56.262Z,12.90
2019-06-01T00:03:28.915Z,13.05
2019-06-01T00:04:03.836Z,11.90
2019-06-01T00:04:39.017Z,11.25
2019-06-01T00:05:14.104Z,10.43
2019-06-01T00:05:49.333Z,11.48
2019-06-01T00:06:24.137Z,12.82
2019-06-01T00:06:58.758Z,13.48
2019-06-01T00:07:33.535Z,12.95
2019-06-01T00:08:08.598Z,10.48
2019-06-01T00:08:43.301Z,12.95
2019-06-01T00:09:18.363Z,12.75
2019-06-01T00:09:53.646Z,11.43
2019-06-01T00:10:28.372Z,12.20
2019-06-01T00:11:03.281Z,10.65
2019-06-01T00:11:39.200Z,15.10
2019-06-01T00:12:13.765Z,13.50
2019-06-01T00:12:49.554Z,15.18
2019-06-01T00:13:24.758Z,13.25
2019-06-01T00:13:59.588Z,13.53
2019-06-01T00:14:34.575Z,16.32
2019-06-01T00:15:10.764Z,18.45
2019-06-01T00:15:46.142Z,21.23
2019-06-01T00:16:21.444Z,20.00
2019-06-01T00:16:56.763Z,18.23
2019-06-01T00:17:31.595Z,15.68
2019-06-01T00:18:06.639Z,15.13
2019-06-01T00:18:41.860Z,14.05
2019-06-01T00:19:16.642Z,10.93
2019-06-01T00:19:51.630Z,14.13
2019-06-01T00:20:26.651Z,13.90
2019-06-01T00:21:01.220Z,14.47
2019-06-01T00:21:35.939Z,15.30
2019-06-01T00:22:10.598Z,15.78
2019-06-01T00:22:45.496Z,15.63
2019-06-01T00:23:20.260Z,17.20
2019-06-01T00:23:55.162Z,15.72
2019-06-01T00:24:29.784Z,13.35
2019-06-01T00:25:05.014Z,13.68
2019-06-01T00:25:40.417Z,14.75
2019-06-01T00:26:15.043Z,13.10
2019-06-01T00:26:49.924Z,11.18
2019-06-01T00:27:24.978Z,11.57
2019-06-01T00:27:59.706Z,13.93
2019-06-01T00:28:34.441Z,15.65
2019-06-01T00:29:09.645Z,15.28
2019-06-01T00:29:44.743Z,15.15
2019-06-01T00:30:26.895Z,15.08
2019-06-01T00:30:56.344Z,15.25
2019-06-01T00:31:30.879Z,12.58
2019-06-01T00:32:05.761Z,12.33
2019-06-01T00:32:40.994Z,11.33
2019-06-01T00:33:15.713Z,13.00
2019-06-01T00:33:51.484Z,11.85
2019-06-01T00:34:26.835Z,13.20
2019-06-01T00:35:01.463Z,13.35
2019-06-01T00:35:36.784Z,16.70
2019-06-01T00:36:11.831Z,13.32
2019-06-01T00:36:47.718Z,11.12
2019-06-01T00:37:22.414Z,13.93
2019-06-01T00:37:57.348Z,15.85
2019-06-01T00:38:31.818Z,17.73
2019-06-01T00:39:08.007Z,14.87
2019-06-01T00:39:43.708Z,14.00
2019-06-01T00:40:18.359Z,16.57
2019-06-01T00:40:53.208Z,14.40
2019-06-01T00:41:28.216Z,15.38
2019-06-01T00:42:02.897Z,14.98
2019-06-01T00:42:37.756Z,13.48
2019-06-01T00:43:12.763Z,15.78
2019-06-01T00:43:48.702Z,13.80
2019-06-01T00:44:23.652Z,13.32
2019-06-01T00:45:00.283Z,14.45
2019-06-01T00:45:34.771Z,15.63
2019-06-01T00:46:09.534Z,17.75
2019-06-01T00:46:44.555Z,18.57
2019-06-01T00:47:19.188Z,17.23
2019-06-01T00:47:53.891Z,20.08
2019-06-01T00:48:28.875Z,19.73
2019-06-01T00:49:03.217Z,16.60
2019-06-01T00:49:38.079Z,11.95
2019-06-01T00:50:13.045Z,12.40
2019-06-01T00:50:49.031Z,11.75
2019-06-01T00:51:23.972Z,12.68
2019-06-01T00:51:58.957Z,13.70
2019-06-01T00:52:33.503Z,10.15
2019-06-01T00:53:08.263Z,10.60
2019-06-01T00:53:43.412Z,14.25
2019-06-01T00:54:17.808Z,15.50
2019-06-01T00:54:53.593Z,15.68
2019-06-01T00:55:28.813Z,14.68
2019-06-01T00:56:03.325Z,14.75
2019-06-01T00:56:38.098Z,14.25
2019-06-01T00:57:13.129Z,14.15
2019-06-01T00:57:47.659Z,13.50
2019-06-01T00:58:22.319Z,13.03
2019-06-01T00:58:57.330Z,14.40
2019-06-01T00:59:32.056Z,11.78
2019-06-01T01:00:07.672Z,13.03
2019-06-01T01:00:44.198Z,13.62
2019-06-01T01:01:18.907Z,13.53
2019-06-01T01:01:54.221Z,15.32
2019-06-01T01:02:29.311Z,17.00
2019-06-01T01:03:03.954Z,15.43
2019-06-01T01:03:38.834Z,14.55
2019-06-01T01:04:13.742Z,16.60
2019-06-01T01:04:57.459Z,16.70
2019-06-01T01:05:32.689Z,16.75
2019-06-01T01:06:07.701Z,18.17
2019-06-01T01:06:42.366Z,13.80
2019-06-01T01:07:17.163Z,14.40
2019-06-01T01:07:53.418Z,14.33
2019-06-01T01:08:27.997Z,14.93
2019-06-01T01:09:02.850Z,15.30
2019-06-01T01:09:37.654Z,14.03
2019-06-01T01:10:12.395Z,12.90
2019-06-01T01:10:47.275Z,16.52
2019-06-01T01:11:22.185Z,16.42
2019-06-01T01:11:56.921Z,16.10
2019-06-01T01:12:32.707Z,17.98
2019-06-01T01:13:11.635Z,16.62
2019-06-01T01:13:47.179Z,15.45
2019-06-01T01:14:22.124Z,16.65
2019-06-01T01:14:57.136Z,17.20
2019-06-01T01:15:31.647Z,16.25
2019-06-01T01:16:06.445Z,14.85
2019-06-01T01:16:41.466Z,12.85
2019-06-01T01:17:16.014Z,14.25
2019-06-01T01:17:51.920Z,12.95
2019-06-01T01:18:26.972Z,13.78
2019-06-01T01:19:01.399Z,12.45
2019-06-01T01:19:36.140Z,12.05
2019-06-01T01:20:11.181Z,13.15
2019-06-01T01:20:46.001Z,13.03
2019-06-01T01:21:20.833Z,13.25
2019-06-01T01:21:57.031Z,12.30
2019-06-01T01:22:31.445Z,15.88
2019-06-01T01:23:06.555Z,17.32
2019-06-01T01:23:41.463Z,17.62
2019-06-01T01:24:16.055Z,20.12
2019-06-01T01:24:50.567Z,20.30
2019-06-01T01:25:25.570Z,23.35
2019-06-01T01:26:00.075Z,15.45
2019-06-01T01:26:35.098Z,14.93
2019-06-01T01:27:10.103Z,13.45
2019-06-01T01:27:44.658Z,12.47
2019-06-01T01:28:19.668Z,13.18
2019-06-01T01:28:54.953Z,12.75
2019-06-01T01:29:29.613Z,14.10
2019-06-01T01:30:05.119Z,15.00
2019-06-01T01:30:40.293Z,15.50
2019-06-01T01:31:14.863Z,17.02
2019-06-01T01:31:49.594Z,15.58
2019-06-01T01:32:24.485Z,14.55
2019-06-01T01:32:59.579Z,17.02
2019-06-01T01:33:34.216Z,16.32
2019-06-01T01:34:09.175Z,14.43
2019-06-01T01:34:43.652Z,14.87
2019-06-01T01:35:18.474Z,14.83
2019-06-01T01:35:54.225Z,12.90
2019-06-01T01:36:28.807Z,16.42
2019-06-01T01:37:03.598Z,14.00
2019-06-01T01:37:38.465Z,14.90
2019-06-01T01:38:12.754Z,16.97
2019-06-01T01:38:48.303Z,17.75
2019-06-01T01:39:23.606Z,16.37
2019-06-01T01:39:58.618Z,18.98
2019-06-01T01:40:33.436Z,15.78
2019-06-01T01:41:08.472Z,16.10
2019-06-01T01:41:42.916Z,16.27
2019-06-01T01:42:17.518Z,20.92
2019-06-01T01:42:52.755Z,19.52
2019-06-01T01:43:27.255Z,19.52
2019-06-01T01:44:02.009Z,18.05
2019-06-01T01:44:36.873Z,17.57
2019-06-01T01:45:11.770Z,14.43
2019-06-01T01:45:46.456Z,14.30
2019-06-01T01:46:21.510Z,14.10
2019-06-01T01:46:56.980Z,17.77
2019-06-01T01:47:32.015Z,16.57
2019-06-01T01:48:07.075Z,16.50
2019-06-01T01:48:41.703Z,18.57
2019-06-01T01:49:16.408Z,15.20
2019-06-01T01:49:52.090Z,16.65
2019-06-01T01:50:27.881Z,17.40
2019-06-01T01:51:02.796Z,15.80
2019-06-01T01:51:37.874Z,16.65
2019-06-01T01:52:12.261Z,20.45
2019-06-01T01:52:46.855Z,21.90
2019-06-01T01:53:21.647Z,21.85
2019-06-01T01:53:56.669Z,24.15
2019-06-01T01:54:31.415Z,18.98
2019-06-01T01:55:07.303Z,20.75
2019-06-01T01:55:42.294Z,21.33
2019-06-01T01:56:16.985Z,15.35
2019-06-01T01:56:52.151Z,17.65
2019-06-01T01:57:26.795Z,18.15
2019-06-01T01:58:01.862Z,20.17
2019-06-01T01:58:36.865Z,18.77
2019-06-01T01:59:11.472Z,21.77
2019-06-01T01:59:46.025Z,26.87
2019-06-01T02:00:36.189Z,28.32
2019-06-01T02:01:22.188Z,24.00
2019-06-01T02:01:46.759Z,16.23
2019-06-01T02:02:21.553Z,26.25
2019-06-01T02:02:56.064Z,14.70
2019-06-01T02:03:30.825Z,14.63
2019-06-01T02:04:06.156Z,15.20
2019-06-01T02:04:40.784Z,14.38
2019-06-01T02:05:15.712Z,19.87
2019-06-01T02:05:54.928Z,18.00
2019-06-01T02:06:29.583Z,13.83
2019-06-01T02:07:04.604Z,14.18
2019-06-01T02:07:39.465Z,13.05
2019-06-01T02:08:14.145Z,12.88
2019-06-01T02:08:48.781Z,16.30
2019-06-01T02:09:23.709Z,15.55
2019-06-01T02:09:59.257Z,18.00
2019-06-01T02:10:34.140Z,16.02
2019-06-01T02:11:10.049Z,16.40
2019-06-01T02:11:44.502Z,13.75
2019-06-01T02:12:19.331Z,15.45
2019-06-01T02:12:55.370Z,15.80
2019-06-01T02:13:30.171Z,18.65
2019-06-01T02:14:05.186Z,19.02
2019-06-01T02:14:40.103Z,25.85
2019-06-01T02:15:16.317Z,32.67
2019-06-01T02:15:52.222Z,28.25
2019-06-01T02:16:27.443Z,31.57
2019-06-01T02:17:02.532Z,34.10
2019-06-01T02:17:37.480Z,31.82
2019-06-01T02:18:12.734Z,29.50
2019-06-01T02:18:47.315Z,29.80
2019-06-01T02:19:21.982Z,30.15
2019-06-01T02:19:56.883Z,23.60
2019-06-01T02:20:31.661Z,22.02
2019-06-01T02:21:06.559Z,16.27
2019-06-01T02:21:41.571Z,19.12
2019-06-01T02:22:16.003Z,17.95
2019-06-01T02:22:50.438Z,18.73
2019-06-01T02:23:25.242Z,16.05
2019-06-01T02:24:01.262Z,17.82
2019-06-01T02:24:36.024Z,16.70
2019-06-01T02:25:11.101Z,18.02
2019-06-01T02:25:45.832Z,19.70
2019-06-01T02:26:20.653Z,17.35
2019-06-01T02:26:57.119Z,16.67
2019-06-01T02:27:31.985Z,12.33
2019-06-01T02:28:06.833Z,15.43
2019-06-01T02:28:41.648Z,14.90
2019-06-01T02:29:16.246Z,13.53
2019-06-01T02:29:50.967Z,13.15
2019-06-01T02:30:26.473Z,14.98
2019-06-01T02:31:02.047Z,11.48
2019-06-01T02:31:42.487Z,11.18
2019-06-01T02:32:13.566Z,15.10
2019-06-01T02:32:48.035Z,16.07
2019-06-01T02:33:22.735Z,11.53
2019-06-01T02:33:58.753Z,11.80
2019-06-01T02:34:33.726Z,11.88
2019-06-01T02:35:09.126Z,13.58
2019-06-01T02:35:44.098Z,16.37
2019-06-01T02:36:18.675Z,13.35
2019-06-01T02:36:54.355Z,13.95
2019-06-01T02:37:29.164Z,12.90
2019-06-01T02:38:05.737Z,13.83
2019-06-01T02:38:40.209Z,13.03
2019-06-01T02:39:15.526Z,14.33
2019-06-01T02:39:50.003Z,17.52
2019-06-01T02:40:26.521Z,17.73
2019-06-01T02:41:03.112Z,15.28
2019-06-01T02:41:37.815Z,17.12
2019-06-01T02:42:13.875Z,19.65
2019-06-01T02:42:49.399Z,18.65
2019-06-01T02:43:24.040Z,19.37
2019-06-01T02:43:59.158Z,20.95
2019-06-01T02:44:33.948Z,26.10
2019-06-01T02:45:12.004Z,24.25
2019-06-01T02:45:46.758Z,19.15
2019-06-01T02:46:21.957Z,15.95
2019-06-01T02:46:57.046Z,14.45
2019-06-01T02:47:31.977Z,14.83
2019-06-01T02:48:07.661Z,16.93
2019-06-01T02:48:42.265Z,20.00
2019-06-01T02:49:17.043Z,27.35
2019-06-01T02:49:52.079Z,20.32
2019-06-01T02:50:26.701Z,10.82
2019-06-01T02:51:01.807Z,12.43
2019-06-01T02:51:37.239Z,14.15
2019-06-01T02:52:11.620Z,17.57
2019-06-01T02:52:46.223Z,20.30
2019-06-01T02:53:21.018Z,19.60
2019-06-01T02:53:55.683Z,17.10
2019-06-01T02:54:30.402Z,16.02
2019-06-01T02:55:06.529Z,18.40
2019-06-01T02:55:41.192Z,16.40
2019-06-01T02:56:15.904Z,16.20
2019-06-01T02:56:50.835Z,15.93
2019-06-01T02:57:25.455Z,17.25
2019-06-01T02:58:00.409Z,26.60
2019-06-01T02:58:35.265Z,30.20
2019-06-01T02:59:09.860Z,25.80
2019-06-01T02:59:44.468Z,15.10
2019-06-01T03:00:25.971Z,18.05
2019-06-01T03:01:22.850Z,20.30
2019-06-01T03:02:05.005Z,15.48
2019-06-01T03:02:35.751Z,15.90
2019-06-01T03:03:10.435Z,15.55
2019-06-01T03:03:45.413Z,16.30
2019-06-01T03:04:20.600Z,16.85
2019-06-01T03:04:57.043Z,17.05
2019-06-01T03:05:32.065Z,18.85
2019-06-01T03:06:09.132Z,18.70
2019-06-01T03:06:44.785Z,18.95
2019-06-01T03:07:20.054Z,19.73
2019-06-01T03:07:55.782Z,16.42
2019-06-01T03:08:32.045Z,17.57
2019-06-01T03:09:10.169Z,15.93
2019-06-01T03:09:46.379Z,14.87
2019-06-01T03:10:21.075Z,15.53
2019-06-01T03:10:57.747Z,14.80
2019-06-01T03:11:38.336Z,15.20
2019-06-01T03:12:15.518Z,15.10
2019-06-01T03:12:53.239Z,15.38
2019-06-01T03:13:30.226Z,14.60
2019-06-01T03:14:06.729Z,14.85
2019-06-01T03:14:43.149Z,14.63
2019-06-01T03:15:18.511Z,14.00
2019-06-01T03:15:55.169Z,14.30
2019-06-01T03:16:30.826Z,13.88
2019-06-01T03:17:06.028Z,13.95
2019-06-01T03:17:44.551Z,13.32
2019-06-01T03:18:21.605Z,13.78
2019-06-01T03:19:01.881Z,13.78
2019-06-01T03:19:40.341Z,12.13
2019-06-01T03:20:15.855Z,13.83
2019-06-01T03:20:52.439Z,13.78
2019-06-01T03:21:30.776Z,13.13
2019-06-01T03:22:08.646Z,12.70
2019-06-01T03:22:44.481Z,13.05
2019-06-01T03:23:20.653Z,14.75
2019-06-01T03:23:58.321Z,13.75
2019-06-01T03:24:37.233Z,13.60
2019-06-01T03:25:12.682Z,13.98
2019-06-01T03:25:51.336Z,14.38
2019-06-01T03:26:29.225Z,13.32
2019-06-01T03:27:06.238Z,13.88
2019-06-01T03:27:44.519Z,15.20
2019-06-01T03:28:22.264Z,13.72
2019-06-01T03:29:00.128Z,13.18
2019-06-01T03:29:39.720Z,14.28
2019-06-01T03:30:15.642Z,13.53
2019-06-01T03:30:50.376Z,12.23
2019-06-01T03:31:25.015Z,12.03
2019-06-01T03:32:19.177Z,12.15
2019-06-01T03:32:37.569Z,11.88
2019-06-01T03:33:14.109Z,11.35
2019-06-01T03:33:49.249Z,11.20
2019-06-01T03:34:23.772Z,12.05
2019-06-01T03:34:58.582Z,11.80
2019-06-01T03:35:33.875Z,12.03
2019-06-01T03:36:09.068Z,12.33
2019-06-01T03:36:44.497Z,12.53
2019-06-01T03:37:19.571Z,13.25
2019-06-01T03:37:54.298Z,13.00
2019-06-01T03:38:29.833Z,14.83
2019-06-01T03:39:06.723Z,14.65
2019-06-01T03:39:43.675Z,14.43
2019-06-01T03:40:23.867Z,13.10
2019-06-01T03:40:55.196Z,12.30
2019-06-01T03:41:29.833Z,12.63
2019-06-01T03:42:05.205Z,12.50
2019-06-01T03:42:40.927Z,11.70
2019-06-01T03:43:16.329Z,12.15
2019-06-01T03:43:51.177Z,11.68
2019-06-01T03:44:26.163Z,11.73
2019-06-01T03:45:01.353Z,11.05
2019-06-01T03:45:36.163Z,12.45
2019-06-01T03:46:11.122Z,12.53
2019-06-01T03:46:46.001Z,11.45
2019-06-01T03:47:21.155Z,12.58
2019-06-01T03:47:56.413Z,12.03
2019-06-01T03:48:31.021Z,12.15
2019-06-01T03:49:06.045Z,12.00
2019-06-01T03:49:41.171Z,11.75
2019-06-01T03:50:15.875Z,11.63
2019-06-01T03:50:50.617Z,11.68
2019-06-01T03:51:25.663Z,12.43
2019-06-01T03:52:00.597Z,12.37
2019-06-01T03:52:35.282Z,11.78
2019-06-01T03:53:10.159Z,12.58
2019-06-01T03:53:44.773Z,11.22
2019-06-01T03:54:19.593Z,11.50
2019-06-01T03:54:54.487Z,12.05
2019-06-01T03:55:29.040Z,12.35
2019-06-01T03:56:04.869Z,11.48
2019-06-01T03:56:40.384Z,10.08
2019-06-01T03:57:14.866Z,11.08
2019-06-01T03:57:49.676Z,9.63
2019-06-01T03:58:24.575Z,9.08
2019-06-01T03:58:59.045Z,8.88
2019-06-01T03:59:33.854Z,9.63
2019-06-01T04:00:09.432Z,8.18
2019-06-01T04:00:44.361Z,9.10
2019-06-01T04:01:18.934Z,9.00
2019-06-01T04:01:53.942Z,9.50
2019-06-01T04:02:33.226Z,8.73
2019-06-01T04:03:05.117Z,8.73
2019-06-01T04:03:40.120Z,9.23
2019-06-01T04:04:14.964Z,8.00
2019-06-01T04:04:49.748Z,8.08
2019-06-01T04:05:24.825Z,8.75
2019-06-01T04:05:59.355Z,8.70
2019-06-01T04:06:34.016Z,9.00
2019-06-01T04:07:08.927Z,8.85
2019-06-01T04:07:43.636Z,8.40
2019-06-01T04:08:18.555Z,8.68
2019-06-01T04:08:53.534Z,8.35
2019-06-01T04:09:27.984Z,8.95
2019-06-01T04:10:03.906Z,9.05
2019-06-01T04:10:39.023Z,8.98
2019-06-01T04:11:13.768Z,9.23
2019-06-01T04:11:48.694Z,8.20
2019-06-01T04:12:23.644Z,8.75
2019-06-01T04:12:58.213Z,8.30
2019-06-01T04:13:33.021Z,8.38
2019-06-01T04:14:08.063Z,7.72
2019-06-01T04:14:42.651Z,8.33
2019-06-01T04:15:17.630Z,7.92
2019-06-01T04:15:52.771Z,8.20
2019-06-01T04:16:27.380Z,8.48
2019-06-01T04:17:02.227Z,8.30
2019-06-01T04:17:37.412Z,8.60
2019-06-01T04:18:13.918Z,8.43
2019-06-01T04:18:48.545Z,8.85
2019-06-01T04:19:23.979Z,9.03
2019-06-01T04:19:58.485Z,8.08
2019-06-01T04:20:33.167Z,9.05
2019-06-01T04:21:08.210Z,8.05
2019-06-01T04:21:43.107Z,9.58
2019-06-01T04:22:17.730Z,8.68
2019-06-01T04:22:52.753Z,8.78
2019-06-01T04:23:27.451Z,7.87
2019-06-01T04:24:02.186Z,8.43
2019-06-01T04:24:37.043Z,8.70
2019-06-01T04:25:12.328Z,9.15
2019-06-01T04:25:47.132Z,8.95
2019-06-01T04:26:22.630Z,9.30
2019-06-01T04:26:57.301Z,10.00
2019-06-01T04:27:31.997Z,10.28
2019-06-01T04:28:08.663Z,9.10
2019-06-01T04:28:43.195Z,9.95
2019-06-01T04:29:17.872Z,8.98
2019-06-01T04:29:52.807Z,9.30
2019-06-01T04:30:28.379Z,10.28
2019-06-01T04:31:04.568Z,9.68
2019-06-01T04:31:39.595Z,9.38
2019-06-01T04:32:14.225Z,10.45
2019-06-01T04:32:50.498Z,9.68
2019-06-01T04:33:25.705Z,9.93
2019-06-01T04:34:00.275Z,10.50
2019-06-01T04:34:35.768Z,10.65
2019-06-01T04:35:11.188Z,10.45
2019-06-01T04:35:45.961Z,10.55
2019-06-01T04:36:20.802Z,10.30
2019-06-01T04:36:55.593Z,10.30
2019-06-01T04:37:30.009Z,10.55
2019-06-01T04:38:05.090Z,9.93
2019-06-01T04:38:40.052Z,10.40
2019-06-01T04:39:14.792Z,10.85
2019-06-01T04:39:49.677Z,10.82
2019-06-01T04:40:24.799Z,10.28
2019-06-01T04:40:59.327Z,11.83
2019-06-01T04:41:34.166Z,11.48
2019-06-01T04:42:09.740Z,11.63
2019-06-01T04:42:44.626Z,15.45
2019-06-01T04:43:19.309Z,17.32
2019-06-01T04:43:54.328Z,17.12
2019-06-01T04:44:29.002Z,18.57
2019-06-01T04:45:04.379Z,19.20
2019-06-01T04:45:39.315Z,15.20
2019-06-01T04:46:14.442Z,18.95
2019-06-01T04:46:49.412Z,17.48
2019-06-01T04:47:24.525Z,17.82
2019-06-01T04:47:59.472Z,17.62
2019-06-01T04:48:34.168Z,18.60
2019-06-01T04:49:09.166Z,18.17
2019-06-01T04:49:43.573Z,17.77
2019-06-01T04:50:18.525Z,17.27
2019-06-01T04:50:53.444Z,16.23
2019-06-01T04:51:28.021Z,16.25
2019-06-01T04:52:02.816Z,16.40
2019-06-01T04:52:37.689Z,15.55
2019-06-01T04:53:13.431Z,15.50
2019-06-01T04:53:48.350Z,14.90
2019-06-01T04:54:23.295Z,15.80
2019-06-01T04:54:57.661Z,14.40
2019-06-01T04:55:32.515Z,13.88
2019-06-01T04:56:08.884Z,13.90
2019-06-01T04:56:43.765Z,14.78
2019-06-01T04:57:18.615Z,13.10
2019-06-01T04:57:53.528Z,13.72
2019-06-01T04:58:28.517Z,14.18
2019-06-01T04:59:03.245Z,13.95
2019-06-01T04:59:38.353Z,15.40
2019-06-01T05:00:25.735Z,14.23
2019-06-01T05:00:51.028Z,14.55
2019-06-01T05:01:26.276Z,14.60
2019-06-01T05:02:00.765Z,13.88
2019-06-01T05:02:35.567Z,13.78
2019-06-01T05:03:11.910Z,14.20
2019-06-01T05:03:46.891Z,14.30
2019-06-01T05:04:21.595Z,14.47
2019-06-01T05:04:56.621Z,14.93
2019-06-01T05:05:31.064Z,14.50
2019-06-01T05:06:07.188Z,14.85
2019-06-01T05:06:42.219Z,14.83
2019-06-01T05:07:16.582Z,13.30
2019-06-01T05:07:51.400Z,13.30
2019-06-01T05:08:26.312Z,13.28
2019-06-01T05:09:00.741Z,13.20
2019-06-01T05:09:35.435Z,13.43
2019-06-01T05:10:11.764Z,12.50
2019-06-01T05:10:46.098Z,12.65
2019-06-01T05:11:20.925Z,12.43
2019-06-01T05:11:55.849Z,13.75
2019-06-01T05:12:30.350Z,12.80
2019-06-01T05:13:05.387Z,12.25
2019-06-01T05:13:40.299Z,12.20
2019-06-01T05:14:16.558Z,12.45
2019-06-01T05:14:51.175Z,11.97
2019-06-01T05:15:26.268Z,11.38
2019-06-01T05:16:01.005Z,11.03
2019-06-01T05:16:35.848Z,11.30
2019-06-01T05:17:12.920Z,10.38
2019-06-01T05:17:47.069Z,11.38
2019-06-01T05:18:22.016Z,11.30
2019-06-01T05:18:56.776Z,10.63
2019-06-01T05:19:31.479Z,10.25
2019-06-01T05:20:08.170Z,11.25
2019-06-01T05:20:44.436Z,11.18
2019-06-01T05:21:19.563Z,10.88
2019-06-01T05:21:54.324Z,10.68
2019-06-01T05:22:29.186Z,11.10
2019-06-01T05:23:03.775Z,10.43
2019-06-01T05:23:38.605Z,10.60
2019-06-01T05:24:13.406Z,10.30
2019-06-01T05:24:48.181Z,10.15
2019-06-01T05:25:23.167Z,10.50
2019-06-01T05:25:58.083Z,10.90
2019-06-01T05:26:32.657Z,10.55
2019-06-01T05:27:08.882Z,10.25
2019-06-01T05:27:43.958Z,10.95
2019-06-01T05:28:18.801Z,10.48
2019-06-01T05:28:53.675Z,11.05
2019-06-01T05:29:28.713Z,10.80
2019-06-01T05:30:03.279Z,10.43
2019-06-01T05:30:37.992Z,9.98
2019-06-01T05:31:19.843Z,9.78
2019-06-01T05:31:49.454Z,10.32
2019-06-01T05:32:24.160Z,10.23
2019-06-01T05:32:59.006Z,10.48
2019-06-01T05:33:37.619Z,9.60
2019-06-01T05:34:10.130Z,9.70
2019-06-01T05:34:45.135Z,9.95
2019-06-01T05:35:19.907Z,9.83
2019-06-01T05:35:54.524Z,9.15
2019-06-01T05:36:29.430Z,10.25
2019-06-01T05:37:03.876Z,9.60
2019-06-01T05:37:38.605Z,10.45
2019-06-01T05:38:14.258Z,10.72
2019-06-01T05:38:48.899Z,9.23
2019-06-01T05:39:23.667Z,9.50
2019-06-01T05:39:58.403Z,9.55
2019-06-01T05:40:33.098Z,10.32
2019-06-01T05:41:09.965Z,10.43
2019-06-01T05:42:03.354Z,9.80
2019-06-01T05:42:37.857Z,10.38
2019-06-01T05:43:14.891Z,11.35
2019-06-01T05:43:48.947Z,11.48
2019-06-01T05:44:23.379Z,10.80
2019-06-01T05:44:58.080Z,10.85
2019-06-01T05:45:33.165Z,12.37
2019-06-01T05:46:07.568Z,12.43
2019-06-01T05:46:42.105Z,12.03
2019-06-01T05:47:16.933Z,11.55
2019-06-01T05:47:51.421Z,11.33
2019-06-01T05:48:30.426Z,10.80
2019-06-01T05:49:02.521Z,11.53
2019-06-01T05:49:36.847Z,12.40
2019-06-01T05:50:12.247Z,11.65
2019-06-01T05:50:47.040Z,12.18
2019-06-01T05:51:21.315Z,12.63
2019-06-01T05:51:55.884Z,12.75
2019-06-01T05:52:30.655Z,12.78
2019-06-01T05:53:05.179Z,11.70
2019-06-01T05:53:39.715Z,11.35
2019-06-01T05:54:14.621Z,11.95
2019-06-01T05:54:48.995Z,12.85
2019-06-01T05:55:23.801Z,13.65
2019-06-01T05:55:58.818Z,13.38
2019-06-01T05:56:33.365Z,13.72
2019-06-01T05:57:07.967Z,12.75
2019-06-01T05:57:43.199Z,12.43
2019-06-01T05:58:19.493Z,12.25
2019-06-01T05:58:54.529Z,12.65
2019-06-01T05:59:29.510Z,12.18
2019-06-01T06:00:04.194Z,12.63
2019-06-01T06:00:41.082Z,13.10
2019-06-01T06:01:16.465Z,14.13
2019-06-01T06:01:50.868Z,13.03
2019-06-01T06:02:25.637Z,12.40
2019-06-01T06:03:00.596Z,13.25
2019-06-01T06:03:40.426Z,13.75
2019-06-01T06:04:11.404Z,13.62
2019-06-01T06:04:46.392Z,13.72
2019-06-01T06:05:20.876Z,13.13
2019-06-01T06:05:55.688Z,11.00
2019-06-01T06:06:30.573Z,11.12
2019-06-01T06:07:05.121Z,11.93
2019-06-01T06:07:39.806Z,12.15
2019-06-01T06:08:14.870Z,11.50
2019-06-01T06:08:50.247Z,11.68
2019-06-01T06:09:24.975Z,10.88
2019-06-01T06:10:00.390Z,11.20
2019-06-01T06:10:34.981Z,10.85
2019-06-01T06:11:10.745Z,10.85
2019-06-01T06:11:45.732Z,9.83
2019-06-01T06:12:21.511Z,10.05
2019-06-01T06:12:56.352Z,10.40
2019-06-01T06:13:31.174Z,10.03
2019-06-01T06:14:05.917Z,9.73
2019-06-01T06:14:40.463Z,9.43
2019-06-01T06:15:15.677Z,10.70
2019-06-01T06:15:50.239Z,9.40
2019-06-01T06:16:24.925Z,9.40
2019-06-01T06:16:59.823Z,10.15
2019-06-01T06:17:34.443Z,8.18
2019-06-01T06:18:09.195Z,9.53
2019-06-01T06:18:44.197Z,8.80
2019-06-01T06:19:21.116Z,8.53
2019-06-01T06:19:55.133Z,9.18
2019-06-01T06:20:31.002Z,7.97
2019-06-01T06:21:05.598Z,8.55
2019-06-01T06:21:40.210Z,8.40
2019-06-01T06:22:16.117Z,8.43
2019-06-01T06:22:50.558Z,8.23
2019-06-01T06:23:25.281Z,7.75
2019-06-01T06:24:00.134Z,8.83
2019-06-01T06:24:34.614Z,8.33
2019-06-01T06:25:09.393Z,8.65
2019-06-01T06:25:44.259Z,8.73
2019-06-01T06:26:20.087Z,8.78
2019-06-01T06:26:55.111Z,8.85
2019-06-01T06:27:30.167Z,8.40
2019-06-01T06:28:04.589Z,8.00
2019-06-01T06:28:39.291Z,8.18
2019-06-01T06:29:14.741Z,7.95
2019-06-01T06:29:49.309Z,7.05
2019-06-01T06:30:24.115Z,7.67
2019-06-01T06:30:59.065Z,7.97
2019-06-01T06:31:33.475Z,7.75
2019-06-01T06:32:09.305Z,7.60
2019-06-01T06:32:44.436Z,8.10
2019-06-01T06:33:19.377Z,8.20
2019-06-01T06:33:56.969Z,6.83
2019-06-01T06:34:30.604Z,7.50
2019-06-01T06:35:05.965Z,7.62
2019-06-01T06:35:40.483Z,7.33
2019-06-01T06:36:15.672Z,7.35
2019-06-01T06:36:50.187Z,6.83
2019-06-01T06:37:24.808Z,7.40
2019-06-01T06:37:59.553Z,7.20
2019-06-01T06:38:33.982Z,7.50
2019-06-01T06:39:09.107Z,7.92
2019-06-01T06:39:44.102Z,8.05
2019-06-01T06:40:20.129Z,7.12
2019-06-01T06:40:54.849Z,7.42
2019-06-01T06:41:29.899Z,6.87
2019-06-01T06:42:04.561Z,7.35
2019-06-01T06:42:39.371Z,7.80
2019-06-01T06:43:22.151Z,7.92
2019-06-01T06:43:50.423Z,7.65
2019-06-01T06:44:25.094Z,7.50
2019-06-01T06:45:02.911Z,7.50
2019-06-01T06:45:36.197Z,7.45
2019-06-01T06:46:10.868Z,6.95
2019-06-01T06:46:45.736Z,7.05
2019-06-01T06:47:20.905Z,7.30
2019-06-01T06:47:57.776Z,7.87
2019-06-01T06:48:36.970Z,7.35
2019-06-01T06:49:11.474Z,6.97
2019-06-01T06:49:46.035Z,6.80
2019-06-01T06:50:21.431Z,7.22
2019-06-01T06:50:55.792Z,7.20
2019-06-01T06:51:30.455Z,7.35
2019-06-01T06:52:07.016Z,7.10
2019-06-01T06:52:41.345Z,7.10
2019-06-01T06:53:25.353Z,6.35
2019-06-01T06:53:52.463Z,6.97
2019-06-01T06:54:26.993Z,7.45
2019-06-01T06:55:01.724Z,7.62
2019-06-01T06:55:36.765Z,7.42
2019-06-01T06:56:11.031Z,7.22
2019-06-01T06:56:45.577Z,7.08
2019-06-01T06:57:20.345Z,7.90
2019-06-01T06:57:54.976Z,7.42
2019-06-01T06:58:29.611Z,7.67
2019-06-01T06:59:04.704Z,8.45
2019-06-01T06:59:39.317Z,8.80
2019-06-01T07:00:14.973Z,9.10
2019-06-01T07:00:50.065Z,8.70
2019-06-01T07:01:24.888Z,9.18
2019-06-01T07:01:59.604Z,8.45
2019-06-01T07:02:34.455Z,8.73
2019-06-01T07:03:09.006Z,8.85
2019-06-01T07:03:43.774Z,8.58
2019-06-01T07:04:19.270Z,8.68
2019-06-01T07:04:53.972Z,8.88
2019-06-01T07:05:31.383Z,8.83
2019-06-01T07:06:05.354Z,8.50
2019-06-01T07:06:39.693Z,8.10
2019-06-01T07:07:14.331Z,8.27
2019-06-01T07:07:49.126Z,9.37
2019-06-01T07:08:23.920Z,8.77
2019-06-01T07:08:58.675Z,9.17
2019-06-01T07:09:33.506Z,9.60
2019-06-01T07:10:08.182Z,9.43
2019-06-01T07:10:42.912Z,8.20
2019-06-01T07:11:19.058Z,8.33
2019-06-01T07:11:53.621Z,9.17
2019-06-01T07:12:28.217Z,9.60
2019-06-01T07:13:03.256Z,8.77
2019-06-01T07:13:37.704Z,8.93
2019-06-01T07:14:12.414Z,9.40
2019-06-01T07:14:47.299Z,9.40
2019-06-01T07:15:21.876Z,8.10
2019-06-01T07:15:56.689Z,8.17
2019-06-01T07:16:31.872Z,10.10
2019-06-01T07:17:06.415Z,8.33
2019-06-01T07:17:40.972Z,9.37
2019-06-01T07:18:15.754Z,9.77
2019-06-01T07:18:50.109Z,9.10
2019-06-01T07:19:25.724Z,9.03
2019-06-01T07:20:00.605Z,7.93
2019-06-01T07:20:35.205Z,7.67
2019-06-01T07:21:09.818Z,7.07
2019-06-01T07:21:44.487Z,7.20
2019-06-01T07:22:19.747Z,6.70
2019-06-01T07:22:54.273Z,6.47
2019-06-01T07:23:29.142Z,6.07
2019-06-01T07:24:03.452Z,6.33
2019-06-01T07:24:37.949Z,7.33
2019-06-01T07:25:12.977Z,7.27
2019-06-01T07:25:47.388Z,7.17
2019-06-01T07:26:22.016Z,7.23
2019-06-01T07:26:56.829Z,7.63
2019-06-01T07:27:32.336Z,8.37
2019-06-01T07:28:07.124Z,7.57
2019-06-01T07:28:44.529Z,8.03
2019-06-01T07:29:18.223Z,7.90
2019-06-01T07:29:53.070Z,9.77
2019-06-01T07:30:28.461Z,8.80
2019-06-01T07:31:03.006Z,7.87
2019-06-01T07:31:37.771Z,7.67
2019-06-01T07:32:12.697Z,7.33
2019-06-01T07:32:47.106Z,7.30
2019-06-01T07:33:22.437Z,7.83
2019-06-01T07:33:57.458Z,8.67
2019-06-01T07:34:41.282Z,7.90
2019-06-01T07:35:08.517Z,8.20
2019-06-01T07:35:43.256Z,8.00
2019-06-01T07:36:17.735Z,7.83
2019-06-01T07:36:52.421Z,7.93
2019-06-01T07:37:28.339Z,7.97